sensor_id;sensor_type;location;lat;lon;timestamp;temperature;humidity
31677;DHT22;18385;51.572;6.578;2022-12-05T00:01:20;7.20;67.40
31677;DHT22;18385;51.572;6.578;2022-12-05T00:03:48;7.20;67.40
31677;DHT22;18385;51.572;6.578;2022-12-05T00:06:14;7.20;67.30
31677;DHT22;18385;51.572;6.578;2022-12-05T00:08:40;7.20;67.30
31677;DHT22;18385;51.572;6.578;2022-12-05T00:11:20;7.20;67.40
31677;DHT22;18385;51.572;6.578;2022-12-05T00:13:47;7.20;67.40
31677;DHT22;18385;51.572;6.578;2022-12-05T00:16:16;7.20;67.50
31677;DHT22;18385;51.572;6.578;2022-12-05T00:18:42;7.20;67.50
31677;DHT22;18385;51.572;6.578;2022-12-05T00:21:13;7.20;67.40
31677;DHT22;18385;51.572;6.578;2022-12-05T00:23:39;7.30;67.40
31677;DHT22;18385;51.572;6.578;2022-12-05T00:26:05;7.30;67.40
31677;DHT22;18385;51.572;6.578;2022-12-05T00:28:32;7.20;67.30
31677;DHT22;18385;51.572;6.578;2022-12-05T00:31:03;7.20;67.40
31677;DHT22;18385;51.572;6.578;2022-12-05T00:33:29;7.30;67.50
31677;DHT22;18385;51.572;6.578;2022-12-05T00:35:55;7.30;67.50
31677;DHT22;18385;51.572;6.578;2022-12-05T00:38:20;7.30;67.50
31677;DHT22;18385;51.572;6.578;2022-12-05T00:40:46;7.30;67.40
31677;DHT22;18385;51.572;6.578;2022-12-05T00:43:11;7.30;67.50
31677;DHT22;18385;51.572;6.578;2022-12-05T00:45:37;7.30;67.40
31677;DHT22;18385;51.572;6.578;2022-12-05T00:48:03;7.30;67.50
31677;DHT22;18385;51.572;6.578;2022-12-05T00:50:29;7.30;67.50
31677;DHT22;18385;51.572;6.578;2022-12-05T00:52:54;7.30;67.60
31677;DHT22;18385;51.572;6.578;2022-12-05T00:55:20;7.30;67.60
31677;DHT22;18385;51.572;6.578;2022-12-05T00:57:46;7.30;67.50
31677;DHT22;18385;51.572;6.578;2022-12-05T01:00:11;7.30;67.50
31677;DHT22;18385;51.572;6.578;2022-12-05T01:02:37;7.30;67.50
31677;DHT22;18385;51.572;6.578;2022-12-05T01:05:03;7.30;67.60
31677;DHT22;18385;51.572;6.578;2022-12-05T01:07:29;7.40;67.60
31677;DHT22;18385;51.572;6.578;2022-12-05T01:09:54;7.30;67.50
31677;DHT22;18385;51.572;6.578;2022-12-05T01:12:20;7.40;67.50
31677;DHT22;18385;51.572;6.578;2022-12-05T01:14:46;7.40;67.50
31677;DHT22;18385;51.572;6.578;2022-12-05T01:17:11;7.30;67.50
31677;DHT22;18385;51.572;6.578;2022-12-05T01:19:37;7.30;67.50
31677;DHT22;18385;51.572;6.578;2022-12-05T01:22:03;7.30;67.60
31677;DHT22;18385;51.572;6.578;2022-12-05T01:24:29;7.30;67.60
31677;DHT22;18385;51.572;6.578;2022-12-05T01:26:55;7.40;67.60
31677;DHT22;18385;51.572;6.578;2022-12-05T01:29:22;7.40;67.60
31677;DHT22;18385;51.572;6.578;2022-12-05T01:31:49;7.30;67.60
31677;DHT22;18385;51.572;6.578;2022-12-05T01:34:16;7.30;67.60
31677;DHT22;18385;51.572;6.578;2022-12-05T01:36:42;7.30;67.80
31677;DHT22;18385;51.572;6.578;2022-12-05T01:39:10;7.30;67.80
31677;DHT22;18385;51.572;6.578;2022-12-05T01:41:40;7.30;67.70
31677;DHT22;18385;51.572;6.578;2022-12-05T01:46:49;7.30;67.70
31677;DHT22;18385;51.572;6.578;2022-12-05T01:49:30;7.30;67.80
31677;DHT22;18385;51.572;6.578;2022-12-05T01:52:05;7.30;67.90
31677;DHT22;18385;51.572;6.578;2022-12-05T01:54:34;7.30;68.00
31677;DHT22;18385;51.572;6.578;2022-12-05T01:57:04;7.30;67.90
31677;DHT22;18385;51.572;6.578;2022-12-05T01:59:33;7.30;67.80
31677;DHT22;18385;51.572;6.578;2022-12-05T02:02:00;7.40;67.80
31677;DHT22;18385;51.572;6.578;2022-12-05T02:04:26;7.30;67.80
31677;DHT22;18385;51.572;6.578;2022-12-05T02:06:53;7.30;67.80
31677;DHT22;18385;51.572;6.578;2022-12-05T02:09:19;7.30;67.90
31677;DHT22;18385;51.572;6.578;2022-12-05T02:11:56;7.40;67.80
31677;DHT22;18385;51.572;6.578;2022-12-05T02:14:33;7.30;67.80
31677;DHT22;18385;51.572;6.578;2022-12-05T02:17:04;7.30;68.00
31677;DHT22;18385;51.572;6.578;2022-12-05T02:23:09;7.30;67.80
31677;DHT22;18385;51.572;6.578;2022-12-05T02:26:05;7.20;67.90
31677;DHT22;18385;51.572;6.578;2022-12-05T02:34:02;7.20;68.20
31677;DHT22;18385;51.572;6.578;2022-12-05T02:36:47;7.10;68.10
31677;DHT22;18385;51.572;6.578;2022-12-05T02:42:26;7.10;68.20
31677;DHT22;18385;51.572;6.578;2022-12-05T02:44:55;7.10;68.30
31677;DHT22;18385;51.572;6.578;2022-12-05T02:47:25;7.00;68.20
31677;DHT22;18385;51.572;6.578;2022-12-05T02:49:53;7.00;68.40
31677;DHT22;18385;51.572;6.578;2022-12-05T02:52:21;7.10;68.50
31677;DHT22;18385;51.572;6.578;2022-12-05T02:54:48;7.10;68.40
31677;DHT22;18385;51.572;6.578;2022-12-05T02:57:16;7.10;68.30
31677;DHT22;18385;51.572;6.578;2022-12-05T02:59:42;7.10;68.40
31677;DHT22;18385;51.572;6.578;2022-12-05T03:02:19;7.10;68.30
31677;DHT22;18385;51.572;6.578;2022-12-05T03:04:45;7.10;68.30
31677;DHT22;18385;51.572;6.578;2022-12-05T03:07:12;7.10;68.40
31677;DHT22;18385;51.572;6.578;2022-12-05T03:10:00;7.10;68.40
31677;DHT22;18385;51.572;6.578;2022-12-05T03:12:27;7.10;68.50
31677;DHT22;18385;51.572;6.578;2022-12-05T03:15:19;7.20;68.50
31677;DHT22;18385;51.572;6.578;2022-12-05T03:17:59;7.20;68.40
31677;DHT22;18385;51.572;6.578;2022-12-05T03:20:56;7.10;68.40
31677;DHT22;18385;51.572;6.578;2022-12-05T03:23:31;7.10;69.40
31677;DHT22;18385;51.572;6.578;2022-12-05T03:34:57;7.10;68.60
31677;DHT22;18385;51.572;6.578;2022-12-05T03:37:39;7.10;68.70
31677;DHT22;18385;51.572;6.578;2022-12-05T03:42:43;7.10;68.90
31677;DHT22;18385;51.572;6.578;2022-12-05T03:45:15;7.10;68.80
31677;DHT22;18385;51.572;6.578;2022-12-05T03:47:55;7.10;68.80
31677;DHT22;18385;51.572;6.578;2022-12-05T03:50:27;7.20;68.80
31677;DHT22;18385;51.572;6.578;2022-12-05T03:52:58;7.20;68.80
31677;DHT22;18385;51.572;6.578;2022-12-05T03:55:27;7.20;68.80
31677;DHT22;18385;51.572;6.578;2022-12-05T04:00:21;7.20;68.80
31677;DHT22;18385;51.572;6.578;2022-12-05T04:03:10;7.10;68.80
31677;DHT22;18385;51.572;6.578;2022-12-05T04:05:49;7.20;68.90
31677;DHT22;18385;51.572;6.578;2022-12-05T04:08:20;7.20;68.90
31677;DHT22;18385;51.572;6.578;2022-12-05T04:10:49;7.20;69.00
31677;DHT22;18385;51.572;6.578;2022-12-05T04:13:18;7.10;68.90
31677;DHT22;18385;51.572;6.578;2022-12-05T04:15:50;7.10;68.90
31677;DHT22;18385;51.572;6.578;2022-12-05T04:18:38;7.20;69.00
31677;DHT22;18385;51.572;6.578;2022-12-05T04:21:06;7.10;69.00
31677;DHT22;18385;51.572;6.578;2022-12-05T04:23:51;7.10;69.10
31677;DHT22;18385;51.572;6.578;2022-12-05T04:26:43;7.10;69.10
31677;DHT22;18385;51.572;6.578;2022-12-05T04:29:18;7.20;69.20
31677;DHT22;18385;51.572;6.578;2022-12-05T04:31:51;7.20;69.10
31677;DHT22;18385;51.572;6.578;2022-12-05T04:34:23;7.20;69.10
31677;DHT22;18385;51.572;6.578;2022-12-05T04:37:01;7.20;69.10
31677;DHT22;18385;51.572;6.578;2022-12-05T04:39:56;7.20;69.10
31677;DHT22;18385;51.572;6.578;2022-12-05T04:42:25;7.30;69.10
31677;DHT22;18385;51.572;6.578;2022-12-05T04:44:55;7.20;69.10
31677;DHT22;18385;51.572;6.578;2022-12-05T04:47:27;7.20;69.20
31677;DHT22;18385;51.572;6.578;2022-12-05T04:49:54;7.20;69.10
31677;DHT22;18385;51.572;6.578;2022-12-05T04:52:21;7.20;69.10
31677;DHT22;18385;51.572;6.578;2022-12-05T04:55:08;7.20;69.20
31677;DHT22;18385;51.572;6.578;2022-12-05T05:00:08;7.20;69.30
31677;DHT22;18385;51.572;6.578;2022-12-05T05:02:41;7.10;69.30
31677;DHT22;18385;51.572;6.578;2022-12-05T05:05:11;7.20;69.40
31677;DHT22;18385;51.572;6.578;2022-12-05T05:07:46;7.20;69.40
31677;DHT22;18385;51.572;6.578;2022-12-05T05:10:16;7.20;69.20
31677;DHT22;18385;51.572;6.578;2022-12-05T05:12:43;7.10;69.20
31677;DHT22;18385;51.572;6.578;2022-12-05T05:15:09;7.10;69.40
31677;DHT22;18385;51.572;6.578;2022-12-05T05:17:35;7.10;69.40
31677;DHT22;18385;51.572;6.578;2022-12-05T05:20:01;7.20;69.50
31677;DHT22;18385;51.572;6.578;2022-12-05T05:22:47;7.20;69.50
31677;DHT22;18385;51.572;6.578;2022-12-05T05:25:13;7.20;70.30
31677;DHT22;18385;51.572;6.578;2022-12-05T05:27:39;7.20;69.60
31677;DHT22;18385;51.572;6.578;2022-12-05T05:30:05;7.20;69.40
31677;DHT22;18385;51.572;6.578;2022-12-05T05:32:34;7.20;69.50
31677;DHT22;18385;51.572;6.578;2022-12-05T05:35:00;7.20;69.50
31677;DHT22;18385;51.572;6.578;2022-12-05T05:37:25;7.20;69.50
31677;DHT22;18385;51.572;6.578;2022-12-05T05:39:51;7.20;69.60
31677;DHT22;18385;51.572;6.578;2022-12-05T05:42:17;7.20;69.50
31677;DHT22;18385;51.572;6.578;2022-12-05T05:44:42;7.10;69.50
31677;DHT22;18385;51.572;6.578;2022-12-05T05:47:08;7.10;69.60
31677;DHT22;18385;51.572;6.578;2022-12-05T05:49:33;7.10;69.60
31677;DHT22;18385;51.572;6.578;2022-12-05T05:51:59;7.10;69.70
31677;DHT22;18385;51.572;6.578;2022-12-05T05:54:25;7.10;69.60
31677;DHT22;18385;51.572;6.578;2022-12-05T05:56:50;7.10;69.70
31677;DHT22;18385;51.572;6.578;2022-12-05T05:59:16;7.20;69.80
31677;DHT22;18385;51.572;6.578;2022-12-05T06:01:42;7.20;69.70
31677;DHT22;18385;51.572;6.578;2022-12-05T06:04:07;7.20;69.80
31677;DHT22;18385;51.572;6.578;2022-12-05T06:06:33;7.30;69.80
31677;DHT22;18385;51.572;6.578;2022-12-05T06:08:59;7.30;69.70
31677;DHT22;18385;51.572;6.578;2022-12-05T06:11:26;7.30;69.80
31677;DHT22;18385;51.572;6.578;2022-12-05T06:13:57;7.30;69.70
31677;DHT22;18385;51.572;6.578;2022-12-05T06:16:25;7.30;69.70
31677;DHT22;18385;51.572;6.578;2022-12-05T06:18:51;7.30;69.80
31677;DHT22;18385;51.572;6.578;2022-12-05T06:21:17;7.30;69.80
31677;DHT22;18385;51.572;6.578;2022-12-05T06:23:43;7.30;69.80
31677;DHT22;18385;51.572;6.578;2022-12-05T06:26:15;7.30;69.80
31677;DHT22;18385;51.572;6.578;2022-12-05T06:28:42;7.30;69.80
31677;DHT22;18385;51.572;6.578;2022-12-05T06:31:10;7.30;70.60
31677;DHT22;18385;51.572;6.578;2022-12-05T06:33:36;7.30;69.80
31677;DHT22;18385;51.572;6.578;2022-12-05T06:36:05;7.30;69.80
31677;DHT22;18385;51.572;6.578;2022-12-05T06:38:31;7.30;69.90
31677;DHT22;18385;51.572;6.578;2022-12-05T06:40:56;7.30;70.00
31677;DHT22;18385;51.572;6.578;2022-12-05T06:43:22;7.30;70.00
31677;DHT22;18385;51.572;6.578;2022-12-05T06:45:48;7.30;69.90
31677;DHT22;18385;51.572;6.578;2022-12-05T06:48:14;7.30;69.90
31677;DHT22;18385;51.572;6.578;2022-12-05T06:50:50;7.30;69.90
31677;DHT22;18385;51.572;6.578;2022-12-05T06:53:16;7.30;69.90
31677;DHT22;18385;51.572;6.578;2022-12-05T06:55:42;7.30;69.90
31677;DHT22;18385;51.572;6.578;2022-12-05T06:58:07;7.30;70.10
31677;DHT22;18385;51.572;6.578;2022-12-05T07:00:33;7.30;70.00
31677;DHT22;18385;51.572;6.578;2022-12-05T07:03:17;7.30;70.00
31677;DHT22;18385;51.572;6.578;2022-12-05T07:05:43;7.20;69.90
31677;DHT22;18385;51.572;6.578;2022-12-05T07:08:09;7.20;70.10
31677;DHT22;18385;51.572;6.578;2022-12-05T07:10:34;7.20;70.20
31677;DHT22;18385;51.572;6.578;2022-12-05T07:13:00;7.20;70.20
31677;DHT22;18385;51.572;6.578;2022-12-05T07:15:26;7.20;70.20
31677;DHT22;18385;51.572;6.578;2022-12-05T07:17:51;7.20;70.10
31677;DHT22;18385;51.572;6.578;2022-12-05T07:20:17;7.20;70.20
31677;DHT22;18385;51.572;6.578;2022-12-05T07:22:44;7.20;70.20
31677;DHT22;18385;51.572;6.578;2022-12-05T07:25:10;7.20;70.10
31677;DHT22;18385;51.572;6.578;2022-12-05T07:27:36;7.20;70.20
31677;DHT22;18385;51.572;6.578;2022-12-05T07:30:02;7.20;70.20
31677;DHT22;18385;51.572;6.578;2022-12-05T07:32:31;7.20;70.20
31677;DHT22;18385;51.572;6.578;2022-12-05T07:34:57;7.30;70.20
31677;DHT22;18385;51.572;6.578;2022-12-05T07:37:23;7.30;71.00
31677;DHT22;18385;51.572;6.578;2022-12-05T07:39:51;7.30;70.30
31677;DHT22;18385;51.572;6.578;2022-12-05T07:42:17;7.20;70.20
31677;DHT22;18385;51.572;6.578;2022-12-05T07:44:42;7.20;70.20
31677;DHT22;18385;51.572;6.578;2022-12-05T07:47:09;7.20;70.20
31677;DHT22;18385;51.572;6.578;2022-12-05T07:49:35;7.20;70.30
31677;DHT22;18385;51.572;6.578;2022-12-05T07:52:01;7.20;70.30
31677;DHT22;18385;51.572;6.578;2022-12-05T07:54:27;7.20;70.30
31677;DHT22;18385;51.572;6.578;2022-12-05T07:56:53;7.10;70.30
31677;DHT22;18385;51.572;6.578;2022-12-05T07:59:19;7.10;70.40
31677;DHT22;18385;51.572;6.578;2022-12-05T08:01:44;7.10;70.40
31677;DHT22;18385;51.572;6.578;2022-12-05T08:04:10;7.10;70.30
31677;DHT22;18385;51.572;6.578;2022-12-05T08:06:36;7.10;70.30
31677;DHT22;18385;51.572;6.578;2022-12-05T08:09:02;7.10;70.40
31677;DHT22;18385;51.572;6.578;2022-12-05T08:11:30;7.10;70.50
31677;DHT22;18385;51.572;6.578;2022-12-05T08:13:56;7.20;70.50
31677;DHT22;18385;51.572;6.578;2022-12-05T08:16:25;7.20;70.50
31677;DHT22;18385;51.572;6.578;2022-12-05T08:18:55;7.20;70.40
31677;DHT22;18385;51.572;6.578;2022-12-05T08:21:21;7.10;70.30
31677;DHT22;18385;51.572;6.578;2022-12-05T08:23:49;7.10;70.40
31677;DHT22;18385;51.572;6.578;2022-12-05T08:26:21;7.10;70.40
31677;DHT22;18385;51.572;6.578;2022-12-05T08:28:54;7.10;70.50
31677;DHT22;18385;51.572;6.578;2022-12-05T08:31:21;7.10;70.50
31677;DHT22;18385;51.572;6.578;2022-12-05T08:33:49;7.10;70.60
31677;DHT22;18385;51.572;6.578;2022-12-05T08:36:15;7.00;70.30
31677;DHT22;18385;51.572;6.578;2022-12-05T08:38:42;7.00;70.40
31677;DHT22;18385;51.572;6.578;2022-12-05T08:41:11;7.00;70.50
31677;DHT22;18385;51.572;6.578;2022-12-05T08:43:37;7.00;70.50
31677;DHT22;18385;51.572;6.578;2022-12-05T08:46:04;7.00;70.50
31677;DHT22;18385;51.572;6.578;2022-12-05T08:48:31;7.00;70.50
31677;DHT22;18385;51.572;6.578;2022-12-05T08:50:57;6.90;70.30
31677;DHT22;18385;51.572;6.578;2022-12-05T08:53:24;6.90;70.40
31677;DHT22;18385;51.572;6.578;2022-12-05T08:55:49;6.90;70.60
31677;DHT22;18385;51.572;6.578;2022-12-05T08:58:15;6.90;70.50
31677;DHT22;18385;51.572;6.578;2022-12-05T09:00:42;6.80;70.40
31677;DHT22;18385;51.572;6.578;2022-12-05T09:03:11;6.80;70.50
31677;DHT22;18385;51.572;6.578;2022-12-05T09:05:37;6.80;70.60
31677;DHT22;18385;51.572;6.578;2022-12-05T09:08:03;6.80;70.70
31677;DHT22;18385;51.572;6.578;2022-12-05T09:10:29;6.80;70.60
31677;DHT22;18385;51.572;6.578;2022-12-05T09:12:55;6.90;70.60
31677;DHT22;18385;51.572;6.578;2022-12-05T09:15:21;6.80;70.60
31677;DHT22;18385;51.572;6.578;2022-12-05T09:17:47;6.90;70.70
31677;DHT22;18385;51.572;6.578;2022-12-05T09:20:12;6.90;70.60
31677;DHT22;18385;51.572;6.578;2022-12-05T09:22:39;6.90;70.60
31677;DHT22;18385;51.572;6.578;2022-12-05T09:25:06;7.00;70.60
31677;DHT22;18385;51.572;6.578;2022-12-05T09:27:32;7.00;70.50
31677;DHT22;18385;51.572;6.578;2022-12-05T09:29:58;7.00;70.60
31677;DHT22;18385;51.572;6.578;2022-12-05T09:32:23;7.00;70.40
31677;DHT22;18385;51.572;6.578;2022-12-05T09:34:49;7.00;70.50
31677;DHT22;18385;51.572;6.578;2022-12-05T09:37:15;7.00;70.50
31677;DHT22;18385;51.572;6.578;2022-12-05T09:39:43;7.00;70.40
31677;DHT22;18385;51.572;6.578;2022-12-05T09:45:11;7.10;70.40
31677;DHT22;18385;51.572;6.578;2022-12-05T09:50:27;7.10;70.50
31677;DHT22;18385;51.572;6.578;2022-12-05T09:58:45;7.20;70.50
31677;DHT22;18385;51.572;6.578;2022-12-05T10:04:15;7.30;70.40
31677;DHT22;18385;51.572;6.578;2022-12-05T10:09:50;7.20;70.30
31677;DHT22;18385;51.572;6.578;2022-12-05T10:12:44;7.20;70.40
31677;DHT22;18385;51.572;6.578;2022-12-05T10:15:19;7.30;70.40
31677;DHT22;18385;51.572;6.578;2022-12-05T10:21:03;7.30;70.30
31677;DHT22;18385;51.572;6.578;2022-12-05T10:23:37;7.30;70.20
31677;DHT22;18385;51.572;6.578;2022-12-05T10:26:07;7.30;70.10
31677;DHT22;18385;51.572;6.578;2022-12-05T10:28:36;7.20;70.10
31677;DHT22;18385;51.572;6.578;2022-12-05T10:31:11;7.20;70.20
31677;DHT22;18385;51.572;6.578;2022-12-05T10:33:42;7.10;70.20
31677;DHT22;18385;51.572;6.578;2022-12-05T10:36:14;7.10;70.30
31677;DHT22;18385;51.572;6.578;2022-12-05T10:38:42;7.10;70.40
31677;DHT22;18385;51.572;6.578;2022-12-05T10:41:13;7.20;70.50
31677;DHT22;18385;51.572;6.578;2022-12-05T10:43:41;7.30;70.20
31677;DHT22;18385;51.572;6.578;2022-12-05T10:46:10;7.30;70.40
31677;DHT22;18385;51.572;6.578;2022-12-05T10:48:39;7.30;70.20
31677;DHT22;18385;51.572;6.578;2022-12-05T10:51:08;7.30;70.20
31677;DHT22;18385;51.572;6.578;2022-12-05T10:56:01;7.20;70.20
31677;DHT22;18385;51.572;6.578;2022-12-05T10:58:28;7.10;70.30
31677;DHT22;18385;51.572;6.578;2022-12-05T11:01:08;7.20;70.50
31677;DHT22;18385;51.572;6.578;2022-12-05T11:03:36;7.30;70.40
31677;DHT22;18385;51.572;6.578;2022-12-05T11:06:16;7.30;70.30
31677;DHT22;18385;51.572;6.578;2022-12-05T11:08:42;7.30;70.10
31677;DHT22;18385;51.572;6.578;2022-12-05T11:11:22;7.30;70.10
31677;DHT22;18385;51.572;6.578;2022-12-05T11:16:25;7.30;70.20
31677;DHT22;18385;51.572;6.578;2022-12-05T11:18:52;7.30;70.20
31677;DHT22;18385;51.572;6.578;2022-12-05T11:21:18;7.40;70.20
31677;DHT22;18385;51.572;6.578;2022-12-05T11:23:46;7.40;70.20
31677;DHT22;18385;51.572;6.578;2022-12-05T11:26:33;7.40;70.10
31677;DHT22;18385;51.572;6.578;2022-12-05T11:29:00;7.40;70.00
31677;DHT22;18385;51.572;6.578;2022-12-05T11:31:28;7.30;70.10
31677;DHT22;18385;51.572;6.578;2022-12-05T11:34:13;7.30;70.80
31677;DHT22;18385;51.572;6.578;2022-12-05T11:36:47;7.30;70.80
31677;DHT22;18385;51.572;6.578;2022-12-05T11:39:15;7.20;70.10
31677;DHT22;18385;51.572;6.578;2022-12-05T11:42:03;7.20;70.20
31677;DHT22;18385;51.572;6.578;2022-12-05T11:47:30;7.10;70.20
31677;DHT22;18385;51.572;6.578;2022-12-05T11:55:45;7.10;70.60
31677;DHT22;18385;51.572;6.578;2022-12-05T11:58:40;7.20;70.70
31677;DHT22;18385;51.572;6.578;2022-12-05T12:01:19;7.30;70.50
31677;DHT22;18385;51.572;6.578;2022-12-05T12:04:16;7.20;70.30
31677;DHT22;18385;51.572;6.578;2022-12-05T12:12:32;7.30;70.40
31677;DHT22;18385;51.572;6.578;2022-12-05T12:23:37;7.30;70.00
31677;DHT22;18385;51.572;6.578;2022-12-05T12:31:39;7.10;70.50
31677;DHT22;18385;51.572;6.578;2022-12-05T12:39:59;7.10;70.60
31677;DHT22;18385;51.572;6.578;2022-12-05T12:42:51;7.10;70.70
31677;DHT22;18385;51.572;6.578;2022-12-05T12:51:18;7.10;70.50
31677;DHT22;18385;51.572;6.578;2022-12-05T13:02:17;7.00;70.40
31677;DHT22;18385;51.572;6.578;2022-12-05T13:05:25;6.90;70.40
31677;DHT22;18385;51.572;6.578;2022-12-05T13:07:57;6.90;70.60
31677;DHT22;18385;51.572;6.578;2022-12-05T13:10:26;6.90;70.70
31677;DHT22;18385;51.572;6.578;2022-12-05T13:12:54;6.90;70.60
31677;DHT22;18385;51.572;6.578;2022-12-05T13:15:42;6.80;70.60
31677;DHT22;18385;51.572;6.578;2022-12-05T13:18:17;6.80;70.80
31677;DHT22;18385;51.572;6.578;2022-12-05T13:20:46;6.70;70.80
31677;DHT22;18385;51.572;6.578;2022-12-05T13:23:16;6.70;70.70
31677;DHT22;18385;51.572;6.578;2022-12-05T13:25:43;6.70;70.80
31677;DHT22;18385;51.572;6.578;2022-12-05T13:30:56;6.80;70.80
31677;DHT22;18385;51.572;6.578;2022-12-05T13:33:29;6.80;70.80
31677;DHT22;18385;51.572;6.578;2022-12-05T13:36:03;6.80;70.80
31677;DHT22;18385;51.572;6.578;2022-12-05T13:38:48;6.80;70.80
31677;DHT22;18385;51.572;6.578;2022-12-05T13:41:40;6.80;70.90
31677;DHT22;18385;51.572;6.578;2022-12-05T13:44:41;6.70;70.80
31677;DHT22;18385;51.572;6.578;2022-12-05T13:47:32;6.80;71.00
31677;DHT22;18385;51.572;6.578;2022-12-05T13:52:46;6.80;71.00
31677;DHT22;18385;51.572;6.578;2022-12-05T13:55:24;6.90;70.90
31677;DHT22;18385;51.572;6.578;2022-12-05T13:57:54;6.90;70.90
31677;DHT22;18385;51.572;6.578;2022-12-05T14:02:51;6.90;70.60
31677;DHT22;18385;51.572;6.578;2022-12-05T14:07:54;6.80;70.60
31677;DHT22;18385;51.572;6.578;2022-12-05T14:21:43;6.60;70.80
31677;DHT22;18385;51.572;6.578;2022-12-05T14:24:18;6.70;70.90
31677;DHT22;18385;51.572;6.578;2022-12-05T14:29:36;6.70;70.90
31677;DHT22;18385;51.572;6.578;2022-12-05T14:34:37;6.60;70.90
31677;DHT22;18385;51.572;6.578;2022-12-05T14:39:51;6.60;70.90
31677;DHT22;18385;51.572;6.578;2022-12-05T14:42:49;6.60;70.90
31677;DHT22;18385;51.572;6.578;2022-12-05T14:47:53;6.60;70.90
31677;DHT22;18385;51.572;6.578;2022-12-05T14:55:40;6.50;70.90
31677;DHT22;18385;51.572;6.578;2022-12-05T14:58:19;6.50;71.10
31677;DHT22;18385;51.572;6.578;2022-12-05T15:00:54;6.50;71.00
31677;DHT22;18385;51.572;6.578;2022-12-05T15:03:26;6.50;71.10
31677;DHT22;18385;51.572;6.578;2022-12-05T15:05:55;6.50;71.10
31677;DHT22;18385;51.572;6.578;2022-12-05T15:08:22;6.50;71.10
31677;DHT22;18385;51.572;6.578;2022-12-05T15:10:49;6.50;71.10
31677;DHT22;18385;51.572;6.578;2022-12-05T15:13:20;6.50;71.20
31677;DHT22;18385;51.572;6.578;2022-12-05T15:15:50;6.50;71.20
31677;DHT22;18385;51.572;6.578;2022-12-05T15:21:43;6.40;71.20
31677;DHT22;18385;51.572;6.578;2022-12-05T15:23:56;6.40;71.20
31677;DHT22;18385;51.572;6.578;2022-12-05T15:29:12;6.30;71.10
31677;DHT22;18385;51.572;6.578;2022-12-05T15:34:27;6.30;71.40
31677;DHT22;18385;51.572;6.578;2022-12-05T15:37:16;6.30;71.40
31677;DHT22;18385;51.572;6.578;2022-12-05T15:42:49;6.30;71.30
31677;DHT22;18385;51.572;6.578;2022-12-05T15:45:26;6.40;71.30
31677;DHT22;18385;51.572;6.578;2022-12-05T15:47:54;6.30;71.20
31677;DHT22;18385;51.572;6.578;2022-12-05T15:50:39;6.30;71.20
31677;DHT22;18385;51.572;6.578;2022-12-05T15:55:48;6.30;71.30
31677;DHT22;18385;51.572;6.578;2022-12-05T15:58:27;6.30;71.30
31677;DHT22;18385;51.572;6.578;2022-12-05T16:01:19;6.30;72.10
31677;DHT22;18385;51.572;6.578;2022-12-05T16:06:49;6.30;71.50
31677;DHT22;18385;51.572;6.578;2022-12-05T16:09:20;6.30;71.60
31677;DHT22;18385;51.572;6.578;2022-12-05T16:12:05;6.30;71.60
31677;DHT22;18385;51.572;6.578;2022-12-05T16:14:39;6.30;71.50
31677;DHT22;18385;51.572;6.578;2022-12-05T16:17:12;6.40;71.60
31677;DHT22;18385;51.572;6.578;2022-12-05T16:19:38;6.40;71.50
31677;DHT22;18385;51.572;6.578;2022-12-05T16:24:31;6.40;71.30
31677;DHT22;18385;51.572;6.578;2022-12-05T16:27:10;6.40;71.30
31677;DHT22;18385;51.572;6.578;2022-12-05T16:29:38;6.40;71.40
31677;DHT22;18385;51.572;6.578;2022-12-05T16:32:22;6.40;71.40
31677;DHT22;18385;51.572;6.578;2022-12-05T16:34:49;6.40;71.40
31677;DHT22;18385;51.572;6.578;2022-12-05T16:37:23;6.40;71.50
31677;DHT22;18385;51.572;6.578;2022-12-05T16:39:50;6.40;71.40
31677;DHT22;18385;51.572;6.578;2022-12-05T16:42:27;6.40;71.50
31677;DHT22;18385;51.572;6.578;2022-12-05T16:45:00;6.40;71.50
31677;DHT22;18385;51.572;6.578;2022-12-05T16:50:33;6.40;71.40
31677;DHT22;18385;51.572;6.578;2022-12-05T16:55:37;6.40;71.50
31677;DHT22;18385;51.572;6.578;2022-12-05T16:58:04;6.30;71.50
31677;DHT22;18385;51.572;6.578;2022-12-05T17:00:31;6.30;71.50
31677;DHT22;18385;51.572;6.578;2022-12-05T17:02:57;6.30;71.50
31677;DHT22;18385;51.572;6.578;2022-12-05T17:05:24;6.40;71.60
31677;DHT22;18385;51.572;6.578;2022-12-05T17:07:51;6.30;71.50
31677;DHT22;18385;51.572;6.578;2022-12-05T17:10:17;6.30;71.50
31677;DHT22;18385;51.572;6.578;2022-12-05T17:12:43;6.30;71.60
31677;DHT22;18385;51.572;6.578;2022-12-05T17:15:18;6.30;71.60
31677;DHT22;18385;51.572;6.578;2022-12-05T17:17:44;6.30;71.70
31677;DHT22;18385;51.572;6.578;2022-12-05T17:20:11;6.30;71.70
31677;DHT22;18385;51.572;6.578;2022-12-05T17:22:38;6.20;71.70
31677;DHT22;18385;51.572;6.578;2022-12-05T17:25:27;6.30;71.90
31677;DHT22;18385;51.572;6.578;2022-12-05T17:27:56;6.40;71.80
31677;DHT22;18385;51.572;6.578;2022-12-05T17:30:23;6.40;71.80
31677;DHT22;18385;51.572;6.578;2022-12-05T17:32:49;6.40;71.60
31677;DHT22;18385;51.572;6.578;2022-12-05T17:35:16;6.30;71.60
31677;DHT22;18385;51.572;6.578;2022-12-05T17:37:42;6.30;71.70
31677;DHT22;18385;51.572;6.578;2022-12-05T17:40:08;6.40;71.70
31677;DHT22;18385;51.572;6.578;2022-12-05T17:42:34;6.40;71.70
31677;DHT22;18385;51.572;6.578;2022-12-05T17:45:00;6.40;71.70
31677;DHT22;18385;51.572;6.578;2022-12-05T17:47:26;6.40;71.60
31677;DHT22;18385;51.572;6.578;2022-12-05T17:49:51;6.50;71.80
31677;DHT22;18385;51.572;6.578;2022-12-05T17:52:17;6.50;71.80
31677;DHT22;18385;51.572;6.578;2022-12-05T17:54:43;6.50;71.70
31677;DHT22;18385;51.572;6.578;2022-12-05T17:57:09;6.50;71.70
31677;DHT22;18385;51.572;6.578;2022-12-05T17:59:34;6.40;71.70
31677;DHT22;18385;51.572;6.578;2022-12-05T18:02:02;6.50;71.90
31677;DHT22;18385;51.572;6.578;2022-12-05T18:04:28;6.50;71.80
31677;DHT22;18385;51.572;6.578;2022-12-05T18:06:54;6.50;71.80
31677;DHT22;18385;51.572;6.578;2022-12-05T18:09:20;6.50;71.70
31677;DHT22;18385;51.572;6.578;2022-12-05T18:11:45;6.50;71.80
31677;DHT22;18385;51.572;6.578;2022-12-05T18:14:11;6.50;71.80
31677;DHT22;18385;51.572;6.578;2022-12-05T18:16:37;6.50;71.80
31677;DHT22;18385;51.572;6.578;2022-12-05T18:19:03;6.50;71.80
31677;DHT22;18385;51.572;6.578;2022-12-05T18:21:28;6.50;71.80
31677;DHT22;18385;51.572;6.578;2022-12-05T18:23:55;6.50;71.80
31677;DHT22;18385;51.572;6.578;2022-12-05T18:26:20;6.50;71.70
31677;DHT22;18385;51.572;6.578;2022-12-05T18:28:46;6.50;71.70
31677;DHT22;18385;51.572;6.578;2022-12-05T18:31:14;6.40;71.70
31677;DHT22;18385;51.572;6.578;2022-12-05T18:33:43;6.50;72.00
31677;DHT22;18385;51.572;6.578;2022-12-05T18:36:12;6.50;71.90
31677;DHT22;18385;51.572;6.578;2022-12-05T18:38:40;6.50;71.90
31677;DHT22;18385;51.572;6.578;2022-12-05T18:41:07;6.50;71.90
31677;DHT22;18385;51.572;6.578;2022-12-05T18:43:33;6.50;71.80
31677;DHT22;18385;51.572;6.578;2022-12-05T18:46:01;6.50;71.80
31677;DHT22;18385;51.572;6.578;2022-12-05T18:48:29;6.60;71.80
31677;DHT22;18385;51.572;6.578;2022-12-05T18:50:55;6.50;71.70
31677;DHT22;18385;51.572;6.578;2022-12-05T18:53:30;6.50;71.80